sensor_id;sensor_type;location;lat;lon;timestamp;P1;durP1;ratioP1;P2;durP2;ratioP2
64826;SDS011;51265;53.972;12.286;2023-02-17T00:00:11;134.68;;;48.45;;
64826;SDS011;51265;53.972;12.286;2023-02-17T00:02:38;115.45;;;49.35;;
64826;SDS011;51265;53.972;12.286;2023-02-17T00:05:05;113.03;;;47.08;;
64826;SDS011;51265;53.972;12.286;2023-02-17T00:07:32;117.68;;;49.35;;
64826;SDS011;51265;53.972;12.286;2023-02-17T00:09:58;119.53;;;49.25;;
64826;SDS011;51265;53.972;12.286;2023-02-17T00:12:25;126.75;;;51.33;;
64826;SDS011;51265;53.972;12.286;2023-02-17T00:14:51;128.73;;;53.20;;
64826;SDS011;51265;53.972;12.286;2023-02-17T00:17:18;149.15;;;56.78;;
64826;SDS011;51265;53.972;12.286;2023-02-17T00:19:44;138.40;;;57.67;;
64826;SDS011;51265;53.972;12.286;2023-02-17T00:22:10;144.43;;;57.10;;
64826;SDS011;51265;53.972;12.286;2023-02-17T00:24:37;149.68;;;58.45;;
64826;SDS011;51265;53.972;12.286;2023-02-17T00:27:04;149.95;;;58.35;;
64826;SDS011;51265;53.972;12.286;2023-02-17T00:29:32;133.40;;;55.03;;
64826;SDS011;51265;53.972;12.286;2023-02-17T00:31:58;165.38;;;60.13;;
64826;SDS011;51265;53.972;12.286;2023-02-17T00:34:24;149.30;;;59.15;;
64826;SDS011;51265;53.972;12.286;2023-02-17T00:36:52;165.70;;;59.33;;
64826;SDS011;51265;53.972;12.286;2023-02-17T00:39:19;157.45;;;58.03;;
64826;SDS011;51265;53.972;12.286;2023-02-17T00:41:48;159.73;;;60.28;;
64826;SDS011;51265;53.972;12.286;2023-02-17T00:44:18;164.07;;;58.70;;
64826;SDS011;51265;53.972;12.286;2023-02-17T00:46:50;149.68;;;56.40;;
64826;SDS011;51265;53.972;12.286;2023-02-17T00:49:20;153.15;;;59.60;;
64826;SDS011;51265;53.972;12.286;2023-02-17T00:51:50;146.32;;;57.70;;
64826;SDS011;51265;53.972;12.286;2023-02-17T00:54:17;152.32;;;57.03;;
64826;SDS011;51265;53.972;12.286;2023-02-17T00:56:44;145.07;;;56.53;;
64826;SDS011;51265;53.972;12.286;2023-02-17T00:59:10;148.07;;;56.50;;
64826;SDS011;51265;53.972;12.286;2023-02-17T01:01:37;148.90;;;55.67;;
64826;SDS011;51265;53.972;12.286;2023-02-17T01:04:04;139.93;;;53.78;;
64826;SDS011;51265;53.972;12.286;2023-02-17T01:06:32;169.27;;;57.72;;
64826;SDS011;51265;53.972;12.286;2023-02-17T01:09:00;152.88;;;57.20;;
64826;SDS011;51265;53.972;12.286;2023-02-17T01:11:28;162.20;;;57.55;;
64826;SDS011;51265;53.972;12.286;2023-02-17T01:13:58;157.57;;;57.28;;
64826;SDS011;51265;53.972;12.286;2023-02-17T01:16:27;147.45;;;56.00;;
64826;SDS011;51265;53.972;12.286;2023-02-17T01:18:58;148.87;;;55.23;;
64826;SDS011;51265;53.972;12.286;2023-02-17T01:21:26;142.07;;;54.03;;
64826;SDS011;51265;53.972;12.286;2023-02-17T01:23:55;155.35;;;58.20;;
64826;SDS011;51265;53.972;12.286;2023-02-17T01:26:23;178.68;;;58.30;;
64826;SDS011;51265;53.972;12.286;2023-02-17T01:28:51;159.50;;;56.55;;
64826;SDS011;51265;53.972;12.286;2023-02-17T01:31:19;150.85;;;55.85;;
64826;SDS011;51265;53.972;12.286;2023-02-17T01:33:47;155.77;;;57.90;;
64826;SDS011;51265;53.972;12.286;2023-02-17T01:36:14;161.63;;;57.80;;
64826;SDS011;51265;53.972;12.286;2023-02-17T01:38:45;159.85;;;57.10;;
64826;SDS011;51265;53.972;12.286;2023-02-17T01:41:12;158.25;;;57.85;;
64826;SDS011;51265;53.972;12.286;2023-02-17T01:43:39;166.55;;;59.65;;
64826;SDS011;51265;53.972;12.286;2023-02-17T01:46:06;147.82;;;55.42;;
64826;SDS011;51265;53.972;12.286;2023-02-17T01:48:37;168.20;;;59.67;;
64826;SDS011;51265;53.972;12.286;2023-02-17T01:51:20;148.82;;;56.50;;
64826;SDS011;51265;53.972;12.286;2023-02-17T01:53:58;156.80;;;56.65;;
64826;SDS011;51265;53.972;12.286;2023-02-17T01:56:31;152.30;;;57.67;;
64826;SDS011;51265;53.972;12.286;2023-02-17T01:59:00;167.32;;;58.30;;
64826;SDS011;51265;53.972;12.286;2023-02-17T02:01:32;167.85;;;61.28;;
64826;SDS011;51265;53.972;12.286;2023-02-17T02:03:59;168.10;;;61.85;;
64826;SDS011;51265;53.972;12.286;2023-02-17T02:06:51;183.23;;;59.53;;
64826;SDS011;51265;53.972;12.286;2023-02-17T02:09:38;172.13;;;57.33;;
64826;SDS011;51265;53.972;12.286;2023-02-17T02:12:21;165.05;;;58.22;;
64826;SDS011;51265;53.972;12.286;2023-02-17T02:14:50;185.52;;;61.53;;
64826;SDS011;51265;53.972;12.286;2023-02-17T02:32:48;165.40;;;57.87;;
64826;SDS011;51265;53.972;12.286;2023-02-17T02:35:06;165.77;;;56.55;;
64826;SDS011;51265;53.972;12.286;2023-02-17T02:38:13;160.80;;;57.60;;
64826;SDS011;51265;53.972;12.286;2023-02-17T02:43:41;165.30;;;58.85;;
64826;SDS011;51265;53.972;12.286;2023-02-17T02:46:08;179.60;;;58.53;;
64826;SDS011;51265;53.972;12.286;2023-02-17T02:48:34;152.00;;;55.67;;
64826;SDS011;51265;53.972;12.286;2023-02-17T02:51:19;193.05;;;62.22;;
64826;SDS011;51265;53.972;12.286;2023-02-17T02:59:52;161.15;;;56.40;;
64826;SDS011;51265;53.972;12.286;2023-02-17T03:05:37;173.55;;;57.38;;
64826;SDS011;51265;53.972;12.286;2023-02-17T03:10:46;177.45;;;58.13;;
64826;SDS011;51265;53.972;12.286;2023-02-17T03:13:14;154.57;;;54.72;;
64826;SDS011;51265;53.972;12.286;2023-02-17T03:15:41;173.57;;;56.40;;
64826;SDS011;51265;53.972;12.286;2023-02-17T03:18:08;156.98;;;53.67;;
64826;SDS011;51265;53.972;12.286;2023-02-17T03:20:37;191.82;;;56.38;;
64826;SDS011;51265;53.972;12.286;2023-02-17T03:23:08;141.37;;;51.20;;
64826;SDS011;51265;53.972;12.286;2023-02-17T03:25:35;154.93;;;54.78;;
64826;SDS011;51265;53.972;12.286;2023-02-17T03:31:59;138.25;;;51.58;;
64826;SDS011;51265;53.972;12.286;2023-02-17T03:34:25;142.68;;;50.53;;
64826;SDS011;51265;53.972;12.286;2023-02-17T03:36:52;127.78;;;51.97;;
64826;SDS011;51265;53.972;12.286;2023-02-17T03:39:18;153.60;;;53.30;;
64826;SDS011;51265;53.972;12.286;2023-02-17T03:41:46;145.75;;;51.83;;
64826;SDS011;51265;53.972;12.286;2023-02-17T03:44:15;150.27;;;52.90;;
64826;SDS011;51265;53.972;12.286;2023-02-17T03:46:41;164.90;;;54.10;;
64826;SDS011;51265;53.972;12.286;2023-02-17T03:49:07;143.05;;;50.90;;
64826;SDS011;51265;53.972;12.286;2023-02-17T03:51:33;133.45;;;49.83;;
64826;SDS011;51265;53.972;12.286;2023-02-17T03:53:59;131.35;;;48.20;;
64826;SDS011;51265;53.972;12.286;2023-02-17T03:56:26;152.65;;;51.58;;
64826;SDS011;51265;53.972;12.286;2023-02-17T03:58:52;127.35;;;49.15;;
64826;SDS011;51265;53.972;12.286;2023-02-17T04:01:18;137.98;;;49.28;;
64826;SDS011;51265;53.972;12.286;2023-02-17T04:03:59;130.55;;;49.58;;
64826;SDS011;51265;53.972;12.286;2023-02-17T04:06:25;105.50;;;46.65;;
64826;SDS011;51265;53.972;12.286;2023-02-17T04:08:52;113.93;;;46.35;;
64826;SDS011;51265;53.972;12.286;2023-02-17T04:11:18;123.25;;;47.50;;
64826;SDS011;51265;53.972;12.286;2023-02-17T04:13:44;129.15;;;48.70;;
64826;SDS011;51265;53.972;12.286;2023-02-17T04:16:10;118.88;;;47.70;;
64826;SDS011;51265;53.972;12.286;2023-02-17T04:18:37;137.80;;;49.92;;
64826;SDS011;51265;53.972;12.286;2023-02-17T04:21:04;134.32;;;48.72;;
64826;SDS011;51265;53.972;12.286;2023-02-17T04:23:30;140.48;;;49.38;;
64826;SDS011;51265;53.972;12.286;2023-02-17T04:25:56;132.70;;;47.75;;
64826;SDS011;51265;53.972;12.286;2023-02-17T04:28:23;129.70;;;47.33;;
64826;SDS011;51265;53.972;12.286;2023-02-17T04:30:49;115.15;;;46.80;;
64826;SDS011;51265;53.972;12.286;2023-02-17T04:33:16;123.38;;;48.55;;
64826;SDS011;51265;53.972;12.286;2023-02-17T04:35:42;118.75;;;47.08;;
64826;SDS011;51265;53.972;12.286;2023-02-17T04:38:08;128.38;;;48.72;;
64826;SDS011;51265;53.972;12.286;2023-02-17T04:40:35;124.30;;;46.55;;
64826;SDS011;51265;53.972;12.286;2023-02-17T04:43:02;105.40;;;45.92;;
64826;SDS011;51265;53.972;12.286;2023-02-17T04:45:29;119.50;;;46.28;;
64826;SDS011;51265;53.972;12.286;2023-02-17T04:47:55;102.15;;;43.40;;
64826;SDS011;51265;53.972;12.286;2023-02-17T04:50:21;121.13;;;45.75;;
64826;SDS011;51265;53.972;12.286;2023-02-17T04:52:47;124.80;;;46.55;;
64826;SDS011;51265;53.972;12.286;2023-02-17T04:55:14;121.43;;;46.83;;
64826;SDS011;51265;53.972;12.286;2023-02-17T04:57:40;110.00;;;44.45;;
64826;SDS011;51265;53.972;12.286;2023-02-17T05:00:06;124.97;;;46.60;;
64826;SDS011;51265;53.972;12.286;2023-02-17T05:02:33;128.00;;;46.58;;
64826;SDS011;51265;53.972;12.286;2023-02-17T05:04:59;112.30;;;44.85;;
64826;SDS011;51265;53.972;12.286;2023-02-17T05:07:27;126.95;;;47.00;;
64826;SDS011;51265;53.972;12.286;2023-02-17T05:09:53;115.72;;;45.00;;
64826;SDS011;51265;53.972;12.286;2023-02-17T05:12:19;121.90;;;46.20;;
64826;SDS011;51265;53.972;12.286;2023-02-17T05:14:45;128.95;;;46.33;;
64826;SDS011;51265;53.972;12.286;2023-02-17T05:17:11;118.75;;;42.22;;
64826;SDS011;51265;53.972;12.286;2023-02-17T05:19:38;126.82;;;44.15;;
64826;SDS011;51265;53.972;12.286;2023-02-17T05:22:04;126.88;;;44.47;;
64826;SDS011;51265;53.972;12.286;2023-02-17T05:24:30;97.22;;;42.20;;
64826;SDS011;51265;53.972;12.286;2023-02-17T05:26:57;120.75;;;44.53;;
64826;SDS011;51265;53.972;12.286;2023-02-17T05:29:23;113.35;;;44.58;;
64826;SDS011;51265;53.972;12.286;2023-02-17T05:31:49;109.60;;;43.38;;
64826;SDS011;51265;53.972;12.286;2023-02-17T05:34:16;110.82;;;43.95;;
64826;SDS011;51265;53.972;12.286;2023-02-17T05:36:42;96.20;;;40.92;;
64826;SDS011;51265;53.972;12.286;2023-02-17T05:39:08;106.93;;;42.30;;
64826;SDS011;51265;53.972;12.286;2023-02-17T05:41:34;108.78;;;41.75;;
64826;SDS011;51265;53.972;12.286;2023-02-17T05:44:00;109.30;;;43.78;;
64826;SDS011;51265;53.972;12.286;2023-02-17T05:46:26;84.80;;;39.10;;
64826;SDS011;51265;53.972;12.286;2023-02-17T05:48:52;103.13;;;41.67;;
64826;SDS011;51265;53.972;12.286;2023-02-17T05:51:19;113.70;;;41.78;;
64826;SDS011;51265;53.972;12.286;2023-02-17T05:53:45;87.97;;;39.00;;
64826;SDS011;51265;53.972;12.286;2023-02-17T05:56:11;108.63;;;43.08;;
64826;SDS011;51265;53.972;12.286;2023-02-17T05:58:37;107.35;;;40.85;;
64826;SDS011;51265;53.972;12.286;2023-02-17T06:01:10;98.68;;;41.30;;
64826;SDS011;51265;53.972;12.286;2023-02-17T06:03:36;99.60;;;39.28;;
64826;SDS011;51265;53.972;12.286;2023-02-17T06:06:03;89.20;;;38.90;;
64826;SDS011;51265;53.972;12.286;2023-02-17T06:08:30;102.68;;;40.80;;
64826;SDS011;51265;53.972;12.286;2023-02-17T06:10:56;91.22;;;38.72;;
64826;SDS011;51265;53.972;12.286;2023-02-17T06:13:22;90.28;;;39.38;;
64826;SDS011;51265;53.972;12.286;2023-02-17T06:15:48;98.68;;;39.33;;
64826;SDS011;51265;53.972;12.286;2023-02-17T06:18:15;96.40;;;39.65;;
64826;SDS011;51265;53.972;12.286;2023-02-17T06:20:41;94.03;;;39.33;;
64826;SDS011;51265;53.972;12.286;2023-02-17T06:23:07;96.80;;;39.53;;
64826;SDS011;51265;53.972;12.286;2023-02-17T06:25:33;94.30;;;39.47;;
64826;SDS011;51265;53.972;12.286;2023-02-17T06:27:59;87.60;;;38.38;;
64826;SDS011;51265;53.972;12.286;2023-02-17T06:30:26;102.03;;;38.65;;
64826;SDS011;51265;53.972;12.286;2023-02-17T06:32:52;88.65;;;37.50;;
64826;SDS011;51265;53.972;12.286;2023-02-17T06:35:18;85.10;;;37.38;;
64826;SDS011;51265;53.972;12.286;2023-02-17T06:37:44;90.57;;;38.78;;
64826;SDS011;51265;53.972;12.286;2023-02-17T06:40:10;81.90;;;36.33;;
64826;SDS011;51265;53.972;12.286;2023-02-17T06:42:37;90.70;;;37.63;;
64826;SDS011;51265;53.972;12.286;2023-02-17T06:45:03;108.03;;;38.92;;
64826;SDS011;51265;53.972;12.286;2023-02-17T06:47:34;86.57;;;36.50;;
64826;SDS011;51265;53.972;12.286;2023-02-17T06:50:00;99.72;;;39.45;;
64826;SDS011;51265;53.972;12.286;2023-02-17T06:52:27;99.32;;;38.60;;
64826;SDS011;51265;53.972;12.286;2023-02-17T06:54:53;87.75;;;37.58;;
64826;SDS011;51265;53.972;12.286;2023-02-17T06:57:19;96.78;;;37.92;;
64826;SDS011;51265;53.972;12.286;2023-02-17T06:59:46;95.65;;;37.55;;
64826;SDS011;51265;53.972;12.286;2023-02-17T07:02:12;89.38;;;37.13;;
64826;SDS011;51265;53.972;12.286;2023-02-17T07:04:39;97.20;;;37.80;;
64826;SDS011;51265;53.972;12.286;2023-02-17T07:07:06;97.28;;;36.65;;
64826;SDS011;51265;53.972;12.286;2023-02-17T07:09:33;91.65;;;37.67;;
64826;SDS011;51265;53.972;12.286;2023-02-17T07:11:59;107.75;;;37.78;;
64826;SDS011;51265;53.972;12.286;2023-02-17T07:14:26;85.13;;;36.65;;
64826;SDS011;51265;53.972;12.286;2023-02-17T07:16:53;84.63;;;34.88;;
64826;SDS011;51265;53.972;12.286;2023-02-17T07:19:19;81.93;;;33.75;;
64826;SDS011;51265;53.972;12.286;2023-02-17T07:21:45;88.93;;;35.63;;
64826;SDS011;51265;53.972;12.286;2023-02-17T07:24:11;82.47;;;33.45;;
64826;SDS011;51265;53.972;12.286;2023-02-17T07:26:38;82.78;;;33.67;;
64826;SDS011;51265;53.972;12.286;2023-02-17T07:29:05;62.67;;;29.83;;
64826;SDS011;51265;53.972;12.286;2023-02-17T07:31:32;77.63;;;31.33;;
64826;SDS011;51265;53.972;12.286;2023-02-17T07:33:59;82.07;;;33.20;;
64826;SDS011;51265;53.972;12.286;2023-02-17T07:36:27;73.95;;;30.77;;
64826;SDS011;51265;53.972;12.286;2023-02-17T07:38:53;75.38;;;31.55;;
64826;SDS011;51265;53.972;12.286;2023-02-17T07:41:20;77.07;;;30.92;;
64826;SDS011;51265;53.972;12.286;2023-02-17T07:43:56;73.07;;;31.83;;
64826;SDS011;51265;53.972;12.286;2023-02-17T07:46:23;78.45;;;32.47;;
64826;SDS011;51265;53.972;12.286;2023-02-17T07:48:50;72.07;;;30.88;;
64826;SDS011;51265;53.972;12.286;2023-02-17T07:51:18;93.28;;;30.83;;
64826;SDS011;51265;53.972;12.286;2023-02-17T07:53:46;73.13;;;29.80;;
64826;SDS011;51265;53.972;12.286;2023-02-17T07:56:14;78.82;;;31.33;;
64826;SDS011;51265;53.972;12.286;2023-02-17T07:58:41;73.78;;;29.48;;
64826;SDS011;51265;53.972;12.286;2023-02-17T08:01:10;76.78;;;30.08;;
64826;SDS011;51265;53.972;12.286;2023-02-17T08:03:42;71.70;;;30.05;;
64826;SDS011;51265;53.972;12.286;2023-02-17T08:06:09;76.75;;;30.33;;
64826;SDS011;51265;53.972;12.286;2023-02-17T08:08:37;75.90;;;29.65;;
64826;SDS011;51265;53.972;12.286;2023-02-17T08:11:21;61.92;;;27.85;;
64826;SDS011;51265;53.972;12.286;2023-02-17T08:14:06;65.70;;;26.08;;
64826;SDS011;51265;53.972;12.286;2023-02-17T08:16:32;66.28;;;26.95;;
64826;SDS011;51265;53.972;12.286;2023-02-17T08:18:58;70.70;;;27.48;;
64826;SDS011;51265;53.972;12.286;2023-02-17T08:21:25;63.10;;;26.55;;
64826;SDS011;51265;53.972;12.286;2023-02-17T08:23:52;56.92;;;25.83;;
64826;SDS011;51265;53.972;12.286;2023-02-17T08:26:19;61.88;;;24.75;;
64826;SDS011;51265;53.972;12.286;2023-02-17T08:28:46;57.58;;;23.38;;
64826;SDS011;51265;53.972;12.286;2023-02-17T08:31:17;57.25;;;24.20;;
64826;SDS011;51265;53.972;12.286;2023-02-17T08:33:46;56.53;;;22.77;;
64826;SDS011;51265;53.972;12.286;2023-02-17T08:36:12;54.03;;;23.88;;
64826;SDS011;51265;53.972;12.286;2023-02-17T08:38:38;51.67;;;23.10;;
64826;SDS011;51265;53.972;12.286;2023-02-17T08:41:16;50.95;;;21.05;;
64826;SDS011;51265;53.972;12.286;2023-02-17T08:43:43;53.30;;;22.35;;
64826;SDS011;51265;53.972;12.286;2023-02-17T08:46:09;58.47;;;22.52;;
64826;SDS011;51265;53.972;12.286;2023-02-17T08:48:37;46.42;;;19.85;;
64826;SDS011;51265;53.972;12.286;2023-02-17T08:51:03;50.22;;;20.95;;
64826;SDS011;51265;53.972;12.286;2023-02-17T08:53:30;53.08;;;22.58;;
64826;SDS011;51265;53.972;12.286;2023-02-17T08:55:56;54.53;;;22.17;;
64826;SDS011;51265;53.972;12.286;2023-02-17T08:58:22;49.28;;;20.25;;
64826;SDS011;51265;53.972;12.286;2023-02-17T09:00:49;55.25;;;21.15;;
64826;SDS011;51265;53.972;12.286;2023-02-17T09:03:15;51.15;;;20.80;;
64826;SDS011;51265;53.972;12.286;2023-02-17T09:05:41;49.05;;;20.50;;
64826;SDS011;51265;53.972;12.286;2023-02-17T09:08:08;56.38;;;20.23;;
64826;SDS011;51265;53.972;12.286;2023-02-17T09:10:36;57.38;;;21.35;;
64826;SDS011;51265;53.972;12.286;2023-02-17T09:13:03;52.25;;;21.00;;
64826;SDS011;51265;53.972;12.286;2023-02-17T09:15:29;54.88;;;20.30;;
64826;SDS011;51265;53.972;12.286;2023-02-17T09:17:56;56.53;;;19.90;;
64826;SDS011;51265;53.972;12.286;2023-02-17T09:20:22;51.63;;;19.38;;
64826;SDS011;51265;53.972;12.286;2023-02-17T09:22:48;52.33;;;20.20;;
64826;SDS011;51265;53.972;12.286;2023-02-17T09:25:14;46.97;;;19.00;;
64826;SDS011;51265;53.972;12.286;2023-02-17T09:27:40;46.90;;;19.45;;
64826;SDS011;51265;53.972;12.286;2023-02-17T09:30:07;44.25;;;18.55;;
64826;SDS011;51265;53.972;12.286;2023-02-17T09:32:33;44.95;;;17.95;;
64826;SDS011;51265;53.972;12.286;2023-02-17T09:34:59;47.10;;;17.55;;
64826;SDS011;51265;53.972;12.286;2023-02-17T09:37:27;39.80;;;17.00;;
64826;SDS011;51265;53.972;12.286;2023-02-17T09:39:54;48.45;;;18.55;;
64826;SDS011;51265;53.972;12.286;2023-02-17T09:42:21;41.05;;;16.35;;
64826;SDS011;51265;53.972;12.286;2023-02-17T09:44:50;38.92;;;15.88;;
64826;SDS011;51265;53.972;12.286;2023-02-17T09:47:39;42.05;;;16.45;;
64826;SDS011;51265;53.972;12.286;2023-02-17T09:50:13;45.28;;;16.75;;
64826;SDS011;51265;53.972;12.286;2023-02-17T09:52:50;37.40;;;16.27;;
64826;SDS011;51265;53.972;12.286;2023-02-17T09:55:40;34.97;;;15.93;;
64826;SDS011;51265;53.972;12.286;2023-02-17T10:00:46;33.00;;;14.70;;
64826;SDS011;51265;53.972;12.286;2023-02-17T10:03:17;35.50;;;15.10;;
64826;SDS011;51265;53.972;12.286;2023-02-17T10:05:50;39.17;;;15.38;;
64826;SDS011;51265;53.972;12.286;2023-02-17T10:08:23;38.28;;;15.27;;
64826;SDS011;51265;53.972;12.286;2023-02-17T10:10:58;37.85;;;15.05;;
64826;SDS011;51265;53.972;12.286;2023-02-17T10:13:35;36.00;;;16.05;;
64826;SDS011;51265;53.972;12.286;2023-02-17T10:16:04;35.45;;;15.30;;
64826;SDS011;51265;53.972;12.286;2023-02-17T10:18:36;38.85;;;16.08;;
64826;SDS011;51265;53.972;12.286;2023-02-17T10:21:10;35.17;;;14.35;;
64826;SDS011;51265;53.972;12.286;2023-02-17T10:23:44;32.63;;;14.18;;
64826;SDS011;51265;53.972;12.286;2023-02-17T10:29:19;32.28;;;14.30;;
64826;SDS011;51265;53.972;12.286;2023-02-17T10:32:19;32.33;;;14.63;;
64826;SDS011;51265;53.972;12.286;2023-02-17T10:40:17;35.05;;;14.32;;
64826;SDS011;51265;53.972;12.286;2023-02-17T10:42:47;33.67;;;13.40;;
64826;SDS011;51265;53.972;12.286;2023-02-17T10:45:29;29.75;;;13.98;;
64826;SDS011;51265;53.972;12.286;2023-02-17T10:48:02;32.40;;;14.20;;
64826;SDS011;51265;53.972;12.286;2023-02-17T10:50:37;29.35;;;12.95;;
64826;SDS011;51265;53.972;12.286;2023-02-17T10:53:13;31.55;;;12.73;;
64826;SDS011;51265;53.972;12.286;2023-02-17T10:55:58;29.35;;;12.40;;
64826;SDS011;51265;53.972;12.286;2023-02-17T10:58:31;27.63;;;12.00;;
64826;SDS011;51265;53.972;12.286;2023-02-17T11:01:02;28.75;;;11.32;;
64826;SDS011;51265;53.972;12.286;2023-02-17T11:03:35;24.38;;;10.40;;
64826;SDS011;51265;53.972;12.286;2023-02-17T11:06:03;21.88;;;9.60;;
64826;SDS011;51265;53.972;12.286;2023-02-17T11:08:44;21.40;;;9.95;;
64826;SDS011;51265;53.972;12.286;2023-02-17T11:11:19;22.45;;;9.90;;
64826;SDS011;51265;53.972;12.286;2023-02-17T11:16:53;20.55;;;9.43;;
64826;SDS011;51265;53.972;12.286;2023-02-17T11:19:26;20.15;;;9.32;;
64826;SDS011;51265;53.972;12.286;2023-02-17T11:21:55;20.85;;;9.55;;
64826;SDS011;51265;53.972;12.286;2023-02-17T11:24:24;18.45;;;8.50;;
64826;SDS011;51265;53.972;12.286;2023-02-17T11:27:24;18.63;;;8.43;;
64826;SDS011;51265;53.972;12.286;2023-02-17T11:29:48;17.08;;;8.68;;
64826;SDS011;51265;53.972;12.286;2023-02-17T11:32:15;17.15;;;7.88;;
64826;SDS011;51265;53.972;12.286;2023-02-17T11:34:41;16.30;;;7.95;;
64826;SDS011;51265;53.972;12.286;2023-02-17T11:39:41;15.02;;;7.47;;
64826;SDS011;51265;53.972;12.286;2023-02-17T11:44:50;14.85;;;7.30;;
64826;SDS011;51265;53.972;12.286;2023-02-17T11:53:02;13.88;;;6.28;;
64826;SDS011;51265;53.972;12.286;2023-02-17T11:58:19;12.30;;;6.28;;
64826;SDS011;51265;53.972;12.286;2023-02-17T12:06:58;10.55;;;5.65;;
64826;SDS011;51265;53.972;12.286;2023-02-17T12:12:46;10.88;;;5.07;;
64826;SDS011;51265;53.972;12.286;2023-02-17T12:21:05;12.30;;;5.47;;
64826;SDS011;51265;53.972;12.286;2023-02-17T12:29:10;10.80;;;5.38;;
64826;SDS011;51265;53.972;12.286;2023-02-17T12:31:55;8.90;;;5.20;;
64826;SDS011;51265;53.972;12.286;2023-02-17T12:34:33;11.15;;;5.47;;
64826;SDS011;51265;53.972;12.286;2023-02-17T12:37:05;11.32;;;5.00;;
64826;SDS011;51265;53.972;12.286;2023-02-17T12:39:44;10.10;;;4.75;;
64826;SDS011;51265;53.972;12.286;2023-02-17T12:42:24;14.10;;;5.13;;
64826;SDS011;51265;53.972;12.286;2023-02-17T12:44:56;13.55;;;5.47;;
64826;SDS011;51265;53.972;12.286;2023-02-17T12:47:29;11.13;;;5.40;;
64826;SDS011;51265;53.972;12.286;2023-02-17T12:52:46;12.32;;;4.75;;
64826;SDS011;51265;53.972;12.286;2023-02-17T12:55:19;12.00;;;4.90;;
64826;SDS011;51265;53.972;12.286;2023-02-17T13:00:39;10.00;;;4.72;;
64826;SDS011;51265;53.972;12.286;2023-02-17T13:03:09;9.55;;;4.38;;
64826;SDS011;51265;53.972;12.286;2023-02-17T13:08:20;11.35;;;5.20;;
64826;SDS011;51265;53.972;12.286;2023-02-17T13:11:00;11.77;;;5.03;;
64826;SDS011;51265;53.972;12.286;2023-02-17T13:13:32;9.70;;;4.53;;
64826;SDS011;51265;53.972;12.286;2023-02-17T13:16:00;12.00;;;5.13;;
64826;SDS011;51265;53.972;12.286;2023-02-17T13:18:28;11.18;;;4.93;;
64826;SDS011;51265;53.972;12.286;2023-02-17T13:20:58;10.25;;;4.68;;
64826;SDS011;51265;53.972;12.286;2023-02-17T13:23:37;10.65;;;4.85;;
64826;SDS011;51265;53.972;12.286;2023-02-17T13:28:46;10.23;;;4.47;;
64826;SDS011;51265;53.972;12.286;2023-02-17T13:31:19;12.30;;;4.97;;
64826;SDS011;51265;53.972;12.286;2023-02-17T13:33:54;12.80;;;5.15;;
64826;SDS011;51265;53.972;12.286;2023-02-17T13:39:02;12.32;;;5.43;;
64826;SDS011;51265;53.972;12.286;2023-02-17T13:41:42;11.80;;;5.18;;
64826;SDS011;51265;53.972;12.286;2023-02-17T13:44:30;13.18;;;4.68;;
64826;SDS011;51265;53.972;12.286;2023-02-17T13:46:59;11.60;;;5.50;;
64826;SDS011;51265;53.972;12.286;2023-02-17T13:49:29;11.07;;;4.82;;
64826;SDS011;51265;53.972;12.286;2023-02-17T13:52:18;12.95;;;5.85;;
64826;SDS011;51265;53.972;12.286;2023-02-17T13:57:26;11.05;;;5.13;;
64826;SDS011;51265;53.972;12.286;2023-02-17T14:02:46;12.75;;;4.63;;
64826;SDS011;51265;53.972;12.286;2023-02-17T14:11:09;10.98;;;4.82;;
64826;SDS011;51265;53.972;12.286;2023-02-17T14:13:38;10.75;;;5.07;;
64826;SDS011;51265;53.972;12.286;2023-02-17T14:16:37;10.40;;;4.30;;
64826;SDS011;51265;53.972;12.286;2023-02-17T14:19:12;10.70;;;4.68;;
64826;SDS011;51265;53.972;12.286;2023-02-17T14:21:41;9.75;;;4.57;;
64826;SDS011;51265;53.972;12.286;2023-02-17T14:27:00;12.35;;;5.10;;
64826;SDS011;51265;53.972;12.286;2023-02-17T14:29:38;9.07;;;4.97;;
64826;SDS011;51265;53.972;12.286;2023-02-17T14:37:39;11.32;;;5.55;;
64826;SDS011;51265;53.972;12.286;2023-02-17T14:40:15;11.10;;;4.75;;
64826;SDS011;51265;53.972;12.286;2023-02-17T14:42:49;7.93;;;4.40;;
64826;SDS011;51265;53.972;12.286;2023-02-17T14:45:16;8.88;;;4.50;;
64826;SDS011;51265;53.972;12.286;2023-02-17T14:47:44;11.43;;;4.47;;
64826;SDS011;51265;53.972;12.286;2023-02-17T14:50:11;7.60;;;3.30;;
64826;SDS011;51265;53.972;12.286;2023-02-17T14:52:42;6.80;;;3.30;;
64826;SDS011;51265;53.972;12.286;2023-02-17T14:58:01;9.02;;;3.60;;
64826;SDS011;51265;53.972;12.286;2023-02-17T15:00:28;6.53;;;2.80;;
64826;SDS011;51265;53.972;12.286;2023-02-17T15:02:54;9.95;;;2.60;;
64826;SDS011;51265;53.972;12.286;2023-02-17T15:05:20;10.20;;;2.20;;
64826;SDS011;51265;53.972;12.286;2023-02-17T15:07:46;7.78;;;2.40;;
64826;SDS011;51265;53.972;12.286;2023-02-17T15:10:16;11.45;;;2.50;;
64826;SDS011;51265;53.972;12.286;2023-02-17T15:12:45;13.00;;;2.30;;
64826;SDS011;51265;53.972;12.286;2023-02-17T15:15:15;14.05;;;2.45;;
64826;SDS011;51265;53.972;12.286;2023-02-17T15:17:42;15.23;;;2.33;;
64826;SDS011;51265;53.972;12.286;2023-02-17T15:20:09;13.13;;;2.03;;
64826;SDS011;51265;53.972;12.286;2023-02-17T15:22:37;12.45;;;2.38;;
64826;SDS011;51265;53.972;12.286;2023-02-17T15:25:13;9.90;;;2.20;;
64826;SDS011;51265;53.972;12.286;2023-02-17T15:27:41;11.15;;;2.08;;
64826;SDS011;51265;53.972;12.286;2023-02-17T15:30:09;19.27;;;3.08;;
64826;SDS011;51265;53.972;12.286;2023-02-17T15:32:37;10.70;;;2.13;;
64826;SDS011;51265;53.972;12.286;2023-02-17T15:35:17;14.80;;;1.92;;
64826;SDS011;51265;53.972;12.286;2023-02-17T15:37:46;12.25;;;2.20;;
64826;SDS011;51265;53.972;12.286;2023-02-17T15:40:17;11.52;;;2.08;;
64826;SDS011;51265;53.972;12.286;2023-02-17T15:42:49;12.70;;;1.95;;
64826;SDS011;51265;53.972;12.286;2023-02-17T15:45:19;9.60;;;1.85;;
64826;SDS011;51265;53.972;12.286;2023-02-17T15:47:59;10.90;;;1.95;;
64826;SDS011;51265;53.972;12.286;2023-02-17T15:50:26;14.60;;;2.70;;
64826;SDS011;51265;53.972;12.286;2023-02-17T15:52:52;14.23;;;2.13;;
64826;SDS011;51265;53.972;12.286;2023-02-17T15:55:19;10.98;;;2.03;;
64826;SDS011;51265;53.972;12.286;2023-02-17T15:57:46;13.73;;;2.35;;
64826;SDS011;51265;53.972;12.286;2023-02-17T16:00:15;16.83;;;3.40;;
64826;SDS011;51265;53.972;12.286;2023-02-17T16:02:44;11.30;;;2.10;;
64826;SDS011;51265;53.972;12.286;2023-02-17T16:05:11;12.23;;;2.50;;
64826;SDS011;51265;53.972;12.286;2023-02-17T16:07:38;14.70;;;3.33;;
64826;SDS011;51265;53.972;12.286;2023-02-17T16:10:05;17.40;;;2.78;;
64826;SDS011;51265;53.972;12.286;2023-02-17T16:12:32;15.27;;;2.83;;
64826;SDS011;51265;53.972;12.286;2023-02-17T16:14:58;19.40;;;2.78;;
64826;SDS011;51265;53.972;12.286;2023-02-17T16:17:24;17.10;;;3.75;;
64826;SDS011;51265;53.972;12.286;2023-02-17T16:19:51;16.70;;;2.65;;